Time;durP1;ratioP1;P1;durP2;ratioP2;P2;SDS_P1;SDS_P2;PMS_P1;PMS_P2;Temp;Humidity;BMP_temperature;BMP_pressure;BME280_temperature;BME280_humidity;BME280_pressure;Samples;Min_cycle;Max_cycle;Signal;HPM_P1;HPM_P2
2023/07/07 00:00:52;;;;;;;41.50;31.88;;;17.50;99.90;;;;;;4838791;29;20062;-81
2023/07/07 00:03:19;;;;;;;39.03;31.60;;;17.50;99.90;;;;;;4840532;29;20053;-81
2023/07/07 00:05:48;;;;;;;37.40;30.58;;;17.50;99.90;;;;;;4840223;29;20233;-81
2023/07/07 00:08:16;;;;;;;37.53;30.48;;;17.60;99.90;;;;;;4823853;29;20287;-80
2023/07/07 00:10:44;;;;;;;35.17;28.83;;;17.60;99.90;;;;;;4840567;29;20046;-82
2023/07/07 00:13:11;;;;;;;36.90;30.50;;;17.60;99.90;;;;;;4840536;29;20579;-82
2023/07/07 00:15:43;;;;;;;36.15;29.38;;;17.50;99.90;;;;;;4839714;29;20057;-81
2023/07/07 00:18:10;;;;;;;34.28;29.50;;;17.50;99.90;;;;;;4839246;29;20133;-81
2023/07/07 00:20:38;;;;;;;35.33;27.65;;;17.40;99.90;;;;;;4839668;29;20555;-82
2023/07/07 00:23:05;;;;;;;35.78;30.05;;;17.30;99.90;;;;;;4842612;29;20054;-80
2023/07/07 00:25:34;;;;;;;36.78;30.67;;;17.20;99.90;;;;;;4840342;29;20057;-81
2023/07/07 00:28:01;;;;;;;41.17;32.50;;;17.30;99.90;;;;;;4822999;29;20098;-81
2023/07/07 00:30:29;;;;;;;37.55;31.88;;;17.40;99.90;;;;;;4840391;29;20049;-80
2023/07/07 00:32:56;;;;;;;34.65;30.70;;;17.30;99.90;;;;;;4840692;29;20046;-82
2023/07/07 00:35:23;;;;;;;40.17;30.20;;;17.20;99.90;;;;;;4840721;29;20098;-80
2023/07/07 00:37:51;;;;;;;34.92;28.80;;;17.20;99.90;;;;;;4857386;29;20094;-82
2023/07/07 00:40:20;;;;;;;37.38;28.60;;;17.20;99.90;;;;;;4840781;29;20380;-80
2023/07/07 00:42:48;;;;;;;33.42;27.15;;;17.20;99.90;;;;;;4839609;29;20694;-81
2023/07/07 00:45:18;;;;;;;31.85;26.27;;;17.30;99.90;;;;;;4838459;29;20132;-80
2023/07/07 00:47:51;;;;;;;29.60;25.67;;;17.40;99.90;;;;;;4838835;29;20050;-81
2023/07/07 00:50:21;;;;;;;30.45;25.85;;;17.30;99.90;;;;;;4822054;29;20129;-80
2023/07/07 00:52:49;;;;;;;30.65;25.10;;;17.20;99.90;;;;;;4838557;29;20050;-80
2023/07/07 00:55:20;;;;;;;31.60;26.45;;;17.20;99.90;;;;;;4839136;29;20098;-81
2023/07/07 00:57:49;;;;;;;27.85;24.63;;;17.20;99.90;;;;;;4838344;29;20046;-81
2023/07/07 01:00:18;;;;;;;30.15;25.25;;;17.30;99.90;;;;;;4838038;29;20046;-81
2023/07/07 01:02:54;;;;;;;31.25;25.50;;;17.20;99.90;;;;;;4838734;29;20054;-81
2023/07/07 01:05:23;;;;;;;29.30;24.10;;;17.10;99.90;;;;;;4822291;29;20045;-81
2023/07/07 01:07:51;;;;;;;32.92;25.85;;;17.20;99.90;;;;;;4838225;29;20041;-80
2023/07/07 01:10:20;;;;;;;31.13;25.75;;;17.30;99.90;;;;;;4838159;29;20521;-79
2023/07/07 01:12:50;;;;;;;29.00;25.60;;;17.30;99.90;;;;;;4822230;29;20050;-81
2023/07/07 01:15:18;;;;;;;33.60;24.77;;;17.40;99.90;;;;;;4822011;29;20086;-79
2023/07/07 01:18:01;;;;;;;27.85;23.60;;;17.40;99.90;;;;;;4836557;29;20574;-81
2023/07/07 01:20:33;;;;;;;28.50;22.92;;;17.40;99.90;;;;;;4838310;29;20094;-80
2023/07/07 01:23:34;;;;;;;29.25;22.70;;;17.50;99.90;;;;;;4836734;29;20053;-81
2023/07/07 01:26:35;;;;;;;28.70;22.60;;;17.50;99.90;;;;;;4837875;29;20042;-79
2023/07/07 01:30:10;;;;;;;26.10;22.48;;;17.40;99.90;;;;;;4844893;29;20041;-79
2023/07/07 01:32:39;;;;;;;27.50;23.05;;;17.30;99.90;;;;;;4744794;30;20052;-80
2023/07/07 01:35:18;;;;;;;25.63;22.88;;;17.30;99.90;;;;;;4730486;30;20056;-79
2023/07/07 01:37:54;;;;;;;26.77;22.95;;;17.30;99.90;;;;;;4745945;30;20056;-79
2023/07/07 01:40:22;;;;;;;27.83;22.67;;;17.30;99.90;;;;;;4745860;30;20059;-80
2023/07/07 01:43:09;;;;;;;27.92;22.00;;;17.30;99.90;;;;;;4746125;30;20545;-80
2023/07/07 01:45:42;;;;;;;25.38;21.48;;;17.30;99.90;;;;;;4727473;30;20053;-79
2023/07/07 01:48:19;;;;;;;26.13;20.48;;;17.10;99.90;;;;;;4730431;30;20571;-79
2023/07/07 01:50:50;;;;;;;29.88;22.05;;;17.10;99.90;;;;;;4759095;30;20043;-79
2023/07/07 01:53:22;;;;;;;25.38;21.70;;;17.00;99.90;;;;;;4761349;30;20055;-79
2023/07/07 01:55:53;;;;;;;27.33;22.05;;;17.00;99.90;;;;;;4768555;30;20093;-80
2023/07/07 01:58:21;;;;;;;28.77;21.50;;;17.10;99.90;;;;;;4769151;30;20561;-80
2023/07/07 02:00:51;;;;;;;26.92;23.42;;;17.00;99.90;;;;;;4751541;30;20105;-79
2023/07/07 02:03:20;;;;;;;24.20;21.58;;;17.00;99.90;;;;;;4795091;29;20585;-80
2023/07/07 02:05:50;;;;;;;31.85;22.77;;;17.10;99.90;;;;;;4806558;29;20153;-80
2023/07/07 02:08:17;;;;;;;23.08;20.58;;;17.10;99.90;;;;;;4823314;29;20578;-79
2023/07/07 02:10:44;;;;;;;24.67;21.67;;;17.10;99.90;;;;;;4824194;29;20408;-80
2023/07/07 02:13:12;;;;;;;25.63;22.00;;;17.10;99.90;;;;;;4822951;29;20046;-80
2023/07/07 02:15:39;;;;;;;28.40;21.85;;;17.10;99.90;;;;;;4806341;29;20054;-80
2023/07/07 02:18:06;;;;;;;23.83;20.67;;;17.20;99.90;;;;;;4815858;29;20070;-80
2023/07/07 02:20:35;;;;;;;24.85;20.80;;;17.20;99.90;;;;;;4824099;29;20522;-80
2023/07/07 02:23:02;;;;;;;26.95;20.85;;;17.20;99.90;;;;;;4840615;29;20045;-79
2023/07/07 02:25:31;;;;;;;24.27;20.10;;;17.20;99.90;;;;;;4841609;29;20129;-79
2023/07/07 02:27:58;;;;;;;25.08;21.30;;;17.10;99.90;;;;;;4824904;29;20079;-80
2023/07/07 02:30:26;;;;;;;26.45;22.23;;;17.10;99.90;;;;;;4842730;29;20065;-80
2023/07/07 02:32:53;;;;;;;27.35;21.55;;;17.10;99.90;;;;;;4843140;29;20045;-79
2023/07/07 02:35:21;;;;;;;23.85;21.00;;;17.00;99.90;;;;;;4859517;29;20148;-79
2023/07/07 02:37:49;;;;;;;27.98;22.35;;;17.00;99.90;;;;;;4857577;29;20497;-79
2023/07/07 02:40:20;;;;;;;24.50;21.48;;;16.90;99.90;;;;;;4845681;29;20552;-80
2023/07/07 02:42:47;;;;;;;24.40;21.52;;;17.00;99.90;;;;;;4822103;29;20046;-79
2023/07/07 02:45:15;;;;;;;24.88;20.75;;;17.00;99.90;;;;;;4820562;29;20431;-79
2023/07/07 02:47:42;;;;;;;24.98;20.63;;;17.00;99.90;;;;;;4821375;29;20043;-80
2023/07/07 02:50:10;;;;;;;30.33;22.38;;;17.00;99.90;;;;;;4805530;29;20590;-80
2023/07/07 02:52:37;;;;;;;26.02;21.52;;;17.00;99.90;;;;;;4806471;29;20050;-78
2023/07/07 02:55:08;;;;;;;25.25;20.45;;;17.00;99.90;;;;;;4821925;29;20054;-79
2023/07/07 02:57:35;;;;;;;27.38;20.58;;;17.00;99.90;;;;;;4805512;29;20046;-80
2023/07/07 03:00:05;;;;;;;26.02;20.00;;;17.00;99.90;;;;;;4821611;29;20038;-80
2023/07/07 03:02:32;;;;;;;26.63;20.58;;;16.90;99.90;;;;;;4834759;29;20551;-79
2023/07/07 03:05:00;;;;;;;27.13;22.52;;;16.80;99.90;;;;;;4840137;29;20050;-80
2023/07/07 03:07:27;;;;;;;25.17;19.63;;;16.90;99.90;;;;;;4838567;29;20569;-80
2023/07/07 03:09:55;;;;;;;27.75;20.33;;;16.90;99.90;;;;;;4822803;29;20445;-81
2023/07/07 03:12:23;;;;;;;30.35;21.42;;;16.90;99.90;;;;;;4839798;29;20046;-80
2023/07/07 03:14:54;;;;;;;27.90;20.20;;;16.90;99.90;;;;;;4827492;29;20069;-79
2023/07/07 03:17:23;;;;;;;26.95;21.92;;;17.00;99.90;;;;;;4823396;29;20321;-80
2023/07/07 03:19:53;;;;;;;27.02;20.30;;;17.10;99.90;;;;;;4822823;29;20061;-80
2023/07/07 03:22:22;;;;;;;27.55;20.77;;;17.10;99.90;;;;;;4839107;29;20118;-79
2023/07/07 03:24:54;;;;;;;24.77;21.60;;;17.20;99.90;;;;;;4838353;29;20045;-79
2023/07/07 03:27:32;;;;;;;23.38;18.20;;;17.30;99.90;;;;;;4838572;29;20046;-80
2023/07/07 03:30:01;;;;;;;25.42;20.05;;;17.30;99.90;;;;;;4837427;29;20060;-79
2023/07/07 03:32:31;;;;;;;27.80;20.10;;;17.30;99.90;;;;;;4858669;29;20093;-79
2023/07/07 03:35:05;;;;;;;25.25;19.42;;;17.30;99.90;;;;;;4842109;29;20059;-80
2023/07/07 03:37:34;;;;;;;28.50;20.13;;;17.30;99.90;;;;;;4831659;29;20061;-79
2023/07/07 03:40:01;;;;;;;25.45;19.85;;;17.30;99.90;;;;;;4830324;29;20038;-79
2023/07/07 03:42:32;;;;;;;26.77;19.92;;;17.30;99.90;;;;;;4840278;29;20121;-79
2023/07/07 03:44:59;;;;;;;28.65;20.38;;;17.30;99.90;;;;;;4820201;29;20068;-78
2023/07/07 03:47:27;;;;;;;29.58;24.52;;;17.30;99.90;;;;;;4820871;29;20066;-79
2023/07/07 03:49:54;;;;;;;25.60;20.23;;;17.30;99.90;;;;;;4820619;29;20050;-79
2023/07/07 03:52:21;;;;;;;28.73;23.02;;;17.30;99.90;;;;;;4821598;29;20047;-79
2023/07/07 03:54:49;;;;;;;33.10;22.90;;;17.40;99.90;;;;;;4804690;29;20046;-79
2023/07/07 03:57:16;;;;;;;34.83;22.67;;;17.40;99.90;;;;;;4804482;29;20211;-79
2023/07/07 03:59:45;;;;;;;34.53;23.23;;;17.30;99.90;;;;;;4820852;29;20046;-79
2023/07/07 04:02:13;;;;;;;29.40;23.20;;;17.40;99.90;;;;;;4830756;29;20110;-79
2023/07/07 04:04:41;;;;;;;30.27;22.67;;;17.40;99.90;;;;;;4839495;29;20495;-78
2023/07/07 04:07:08;;;;;;;29.63;22.35;;;17.50;99.90;;;;;;4839155;29;20491;-80
2023/07/07 04:09:36;;;;;;;25.92;22.38;;;17.40;99.90;;;;;;4837517;29;20822;-79
2023/07/07 04:12:03;;;;;;;31.15;20.60;;;17.50;99.90;;;;;;4822327;29;20038;-79
2023/07/07 04:14:30;;;;;;;23.08;20.50;;;17.50;99.90;;;;;;4822424;29;20046;-79
2023/07/07 04:16:59;;;;;;;23.58;19.02;;;17.60;99.90;;;;;;4821780;29;20148;-79
2023/07/07 04:19:27;;;;;;;24.70;19.45;;;17.60;99.90;;;;;;4839490;29;20057;-78
2023/07/07 04:21:54;;;;;;;24.25;19.58;;;17.50;99.90;;;;;;4838361;29;20038;-79
2023/07/07 04:24:21;;;;;;;28.17;20.10;;;17.60;99.90;;;;;;4839095;29;20066;-78
2023/07/07 04:26:50;;;;;;;22.25;18.15;;;17.70;99.90;;;;;;4822322;29;20534;-78
2023/07/07 04:29:17;;;;;;;24.60;18.77;;;17.70;99.90;;;;;;4847958;29;20045;-79
2023/07/07 04:31:45;;;;;;;23.75;18.25;;;17.90;99.90;;;;;;4857099;29;20707;-78
2023/07/07 04:34:14;;;;;;;22.48;16.80;;;18.00;99.90;;;;;;4840566;29;20049;-79
2023/07/07 04:36:42;;;;;;;20.50;17.45;;;18.30;99.90;;;;;;4838354;29;20054;-80
2023/07/07 04:39:10;;;;;;;23.20;16.75;;;18.40;99.90;;;;;;4838423;29;20106;-79
2023/07/07 04:41:38;;;;;;;24.42;18.40;;;18.40;99.90;;;;;;4837852;29;20042;-79
2023/07/07 04:44:05;;;;;;;19.95;17.85;;;18.30;99.90;;;;;;4828706;29;20046;-78
2023/07/07 04:46:34;;;;;;;23.00;20.52;;;18.30;99.90;;;;;;4820831;29;20054;-80
2023/07/07 04:49:06;;;;;;;20.08;16.83;;;18.30;99.90;;;;;;4820244;29;20046;-78
2023/07/07 04:51:35;;;;;;;20.10;17.10;;;18.40;99.90;;;;;;4803459;29;20043;-80
2023/07/07 04:54:03;;;;;;;18.60;15.80;;;18.50;99.90;;;;;;4820466;29;20264;-78
2023/07/07 04:56:32;;;;;;;17.73;15.63;;;18.70;99.90;;;;;;4803634;29;20046;-79
2023/07/07 04:59:00;;;;;;;21.63;16.42;;;18.90;99.90;;;;;;4820190;29;20168;-78
2023/07/07 05:01:29;;;;;;;24.30;15.70;;;19.00;99.90;;;;;;4824698;29;20045;-79
2023/07/07 05:03:59;;;;;;;23.88;15.88;;;19.10;99.90;;;;;;4838204;29;20046;-78
2023/07/07 05:06:29;;;;;;;20.92;15.80;;;19.60;99.90;;;;;;4838127;29;20057;-78
2023/07/07 05:08:58;;;;;;;19.35;15.13;;;20.40;99.90;;;;;;4838164;29;20049;-76
2023/07/07 05:11:29;;;;;;;22.45;16.88;;;20.30;99.90;;;;;;4837737;29;20042;-77
2023/07/07 05:13:57;;;;;;;23.38;14.68;;;20.60;99.90;;;;;;4838380;29;20043;-77
2023/07/07 05:16:26;;;;;;;19.13;16.92;;;21.00;99.90;;;;;;4838786;29;20388;-78
2023/07/07 05:18:54;;;;;;;20.50;17.95;;;21.10;99.90;;;;;;4838240;29;20046;-78
2023/07/07 05:21:22;;;;;;;21.75;15.35;;;21.20;99.90;;;;;;4837769;29;20534;-79
2023/07/07 05:23:51;;;;;;;18.45;14.48;;;21.60;99.90;;;;;;4837935;29;20114;-78
2023/07/07 05:26:21;;;;;;;20.60;14.80;;;22.60;99.90;;;;;;4838094;29;20203;-79
2023/07/07 05:28:51;;;;;;;24.02;15.52;;;23.90;99.90;;;;;;4839223;29;20125;-78
2023/07/07 05:31:18;;;;;;;22.08;18.33;;;24.50;99.90;;;;;;4851372;24;20034;-81
2023/07/07 05:33:47;;;;;;;25.27;20.58;;;24.50;99.90;;;;;;4842146;29;20130;-82
2023/07/07 05:36:15;;;;;;;21.77;17.55;;;24.90;99.90;;;;;;4811651;29;20049;-82
2023/07/07 05:38:42;;;;;;;19.77;16.52;;;24.50;99.90;;;;;;4826764;29;20134;-81
2023/07/07 05:41:12;;;;;;;19.23;16.42;;;24.30;99.90;;;;;;4824611;29;20146;-80
2023/07/07 05:43:42;;;;;;;20.20;16.90;;;23.90;99.90;;;;;;4826992;29;20044;-81
2023/07/07 05:46:13;;;;;;;20.45;17.33;;;23.50;99.90;;;;;;4824932;29;20053;-80
2023/07/07 05:48:41;;;;;;;21.38;17.23;;;23.10;99.90;;;;;;4809118;29;20050;-82
2023/07/07 05:51:18;;;;;;;25.40;18.17;;;23.10;99.90;;;;;;4824788;29;20054;-83
2023/07/07 05:53:47;;;;;;;23.35;18.35;;;23.20;99.90;;;;;;4826236;29;20038;-81
2023/07/07 05:56:19;;;;;;;28.20;19.08;;;23.40;99.90;;;;;;4824901;29;20057;-81
2023/07/07 05:58:47;;;;;;;23.05;18.42;;;23.40;99.90;;;;;;4826122;29;20071;-81
2023/07/07 06:01:15;;;;;;;26.80;19.77;;;23.30;99.90;;;;;;4826881;29;20506;-81
2023/07/07 06:03:43;;;;;;;27.13;21.33;;;23.40;99.90;;;;;;4846622;29;20089;-82
2023/07/07 06:06:10;;;;;;;23.73;20.65;;;23.50;99.90;;;;;;4822588;29;20507;-81
2023/07/07 06:08:40;;;;;;;25.42;19.90;;;23.70;99.90;;;;;;4825528;29;20047;-81
2023/07/07 06:11:08;;;;;;;28.50;21.77;;;23.70;99.90;;;;;;4808201;29;20154;-83
2023/07/07 06:13:35;;;;;;;38.35;23.95;;;23.70;99.90;;;;;;4824101;29;20047;-81
2023/07/07 06:16:05;;;;;;;32.67;22.88;;;23.80;99.90;;;;;;4827639;29;20051;-80
2023/07/07 06:18:32;;;;;;;34.72;25.45;;;23.80;99.90;;;;;;4828075;29;20050;-80
2023/07/07 06:21:00;;;;;;;47.28;31.90;;;23.90;99.90;;;;;;4822999;29;20042;-81
2023/07/07 06:23:28;;;;;;;44.38;30.33;;;24.10;99.90;;;;;;4825016;29;20057;-81
2023/07/07 06:25:56;;;;;;;37.60;29.02;;;24.50;99.90;;;;;;4817762;29;20074;-80
2023/07/07 06:28:23;;;;;;;43.28;28.02;;;25.20;99.90;;;;;;4825091;29;20103;-79
2023/07/07 06:30:51;;;;;;;44.53;30.52;;;25.40;99.90;;;;;;4824279;29;20056;-82
2023/07/07 06:33:21;;;;;;;47.72;33.92;;;25.30;99.90;;;;;;4840898;29;20366;-82
2023/07/07 06:35:49;;;;;;;60.90;38.83;;;25.00;99.90;;;;;;4841032;29;20046;-82
2023/07/07 06:38:18;;;;;;;65.80;43.70;;;25.30;99.90;;;;;;4841017;29;20076;-83
2023/07/07 06:40:47;;;;;;;63.50;45.53;;;25.90;99.90;;;;;;4841746;29;20095;-82
2023/07/07 06:43:17;;;;;;;67.97;42.55;;;26.10;99.90;;;;;;4821637;29;20058;-79
2023/07/07 06:45:46;;;;;;;63.72;43.78;;;25.90;99.90;;;;;;4823994;29;20050;-81
2023/07/07 06:48:13;;;;;;;56.88;39.80;;;26.20;99.90;;;;;;4822846;29;20069;-81
2023/07/07 06:50:43;;;;;;;51.72;35.45;;;26.40;99.90;;;;;;4823148;29;20396;-80
2023/07/07 06:53:10;;;;;;;44.28;33.08;;;27.00;99.90;;;;;;4822745;29;20126;-81
2023/07/07 06:55:38;;;;;;;54.00;36.28;;;27.10;99.90;;;;;;4823393;29;20034;-81
2023/07/07 06:58:05;;;;;;;55.65;35.80;;;27.20;99.90;;;;;;4805692;29;20042;-81
2023/07/07 07:00:33;;;;;;;50.20;33.70;;;27.10;99.90;;;;;;4822480;29;20095;-80
2023/07/07 07:03:00;;;;;;;51.05;32.55;;;27.20;99.90;;;;;;4838950;29;20050;-82
2023/07/07 07:05:27;;;;;;;46.63;32.92;;;27.50;99.90;;;;;;4841892;29;20050;-82
2023/07/07 07:07:57;;;;;;;32.78;24.50;;;27.80;99.90;;;;;;4822753;29;20535;-81
2023/07/07 07:10:24;;;;;;;28.27;22.92;;;28.00;99.90;;;;;;4822922;29;20500;-81
2023/07/07 07:12:52;;;;;;;29.52;21.88;;;28.10;99.90;;;;;;4823272;29;20467;-81
2023/07/07 07:15:19;;;;;;;27.77;21.77;;;28.20;99.90;;;;;;4826013;29;20533;-81
2023/07/07 07:17:47;;;;;;;30.60;21.80;;;28.20;99.90;;;;;;4824252;29;20045;-82
2023/07/07 07:20:17;;;;;;;29.85;23.92;;;27.60;99.90;;;;;;4823412;29;20157;-83
2023/07/07 07:22:44;;;;;;;35.60;23.90;;;27.40;99.90;;;;;;4828039;29;20042;-80
2023/07/07 07:25:13;;;;;;;29.85;23.27;;;27.30;99.90;;;;;;4824394;29;20042;-81
2023/07/07 07:27:40;;;;;;;31.05;22.70;;;27.20;1.00;;;;;;4822607;29;20054;-82
2023/07/07 07:30:11;;;;;;;30.23;22.15;;;27.10;1.00;;;;;;4839431;29;20046;-82
2023/07/07 07:32:43;;;;;;;58.35;25.70;;;27.20;1.00;;;;;;4826629;29;20525;-81
2023/07/07 07:35:12;;;;;;;29.95;21.13;;;27.30;1.00;;;;;;4810148;29;20548;-81
2023/07/07 07:37:40;;;;;;;26.75;21.00;;;27.40;1.00;;;;;;4841020;29;20129;-82
2023/07/07 07:40:09;;;;;;;26.90;20.35;;;27.50;1.00;;;;;;4823533;29;20094;-82
2023/07/07 07:42:38;;;;;;;20.63;15.05;;;27.60;1.00;;;;;;4839339;29;20093;-83
2023/07/07 07:45:06;;;;;;;24.13;14.40;;;27.80;1.00;;;;;;4824648;29;20046;-84
2023/07/07 07:47:35;;;;;;;16.35;12.00;;;28.30;1.00;;;;;;4805653;29;20054;-82
2023/07/07 07:50:03;;;;;;;12.82;10.20;;;28.70;99.90;;;;;;4805931;29;20054;-84
2023/07/07 07:52:33;;;;;;;16.88;11.60;;;29.00;99.90;;;;;;4845004;29;20050;-83
2023/07/07 07:55:00;;;;;;;16.42;12.38;;;29.10;1.00;;;;;;4844677;29;20106;-83
2023/07/07 07:57:27;;;;;;;20.02;13.35;;;29.40;1.00;;;;;;4839241;29;20050;-82
2023/07/07 07:59:56;;;;;;;21.70;12.88;;;29.40;1.00;;;;;;4823813;29;20070;-81
2023/07/07 08:02:23;;;;;;;13.30;10.15;;;29.20;1.00;;;;;;4825902;29;20051;-85
2023/07/07 08:04:51;;;;;;;13.82;8.80;;;29.00;1.00;;;;;;4823777;29;20065;-82
2023/07/07 08:07:19;;;;;;;11.52;8.27;;;28.80;1.00;;;;;;4824585;29;20073;-80
2023/07/07 08:09:46;;;;;;;12.52;7.90;;;28.60;82.60;;;;;;4824374;29;20043;-81
2023/07/07 08:12:13;;;;;;;11.77;7.80;;;28.50;99.90;;;;;;4823649;29;20054;-81
2023/07/07 08:14:40;;;;;;;15.80;8.02;;;28.80;99.90;;;;;;4823403;29;20050;-83
2023/07/07 08:17:12;;;;;;;12.43;8.05;;;28.90;99.90;;;;;;4822781;29;20059;-81
2023/07/07 08:19:41;;;;;;;13.80;7.50;;;29.00;99.90;;;;;;4823874;29;20069;-81
2023/07/07 08:22:12;;;;;;;12.73;8.52;;;29.10;99.90;;;;;;4839635;29;20075;-80
2023/07/07 08:24:41;;;;;;;11.52;8.25;;;29.10;99.90;;;;;;4839760;29;20050;-82
2023/07/07 08:27:09;;;;;;;11.15;8.35;;;29.30;99.90;;;;;;4839702;29;20049;-82
2023/07/07 08:29:37;;;;;;;15.05;10.82;;;29.50;99.90;;;;;;4839334;29;20054;-82
2023/07/07 08:32:04;;;;;;;11.85;8.88;;;29.90;99.90;;;;;;4840761;29;20042;-81
2023/07/07 08:34:33;;;;;;;11.75;8.60;;;30.00;99.90;;;;;;4839631;29;20046;-82
2023/07/07 08:37:02;;;;;;;14.23;11.35;;;29.90;99.90;;;;;;4838795;29;20054;-82
2023/07/07 08:39:31;;;;;;;17.42;11.15;;;30.00;99.90;;;;;;4840944;29;20339;-82
2023/07/07 08:42:01;;;;;;;12.13;8.68;;;29.80;99.90;;;;;;4840916;29;20057;-84
2023/07/07 08:44:32;;;;;;;13.45;8.77;;;29.60;99.90;;;;;;4822933;29;20451;-82
2023/07/07 08:47:13;;;;;;;15.20;9.00;;;29.50;99.90;;;;;;4838845;29;20045;-83
2023/07/07 08:49:49;;;;;;;13.60;9.70;;;29.50;99.90;;;;;;4823878;29;20038;-82
2023/07/07 08:52:27;;;;;;;14.70;11.23;;;29.80;99.90;;;;;;4840654;29;20098;-83
2023/07/07 08:55:02;;;;;;;11.98;9.63;;;29.80;99.90;;;;;;4823678;29;20042;-82
2023/07/07 08:57:36;;;;;;;13.23;10.52;;;30.10;99.90;;;;;;4839265;29;20050;-83
2023/07/07 09:00:07;;;;;;;15.23;12.57;;;30.30;99.90;;;;;;4838577;29;20364;-84
2023/07/07 09:02:53;;;;;;;15.73;10.68;;;30.40;99.90;;;;;;4846069;29;20038;-83
2023/07/07 09:05:33;;;;;;;15.27;11.88;;;30.70;99.90;;;;;;4859857;29;20098;-83
2023/07/07 09:08:09;;;;;;;17.42;10.63;;;30.50;99.90;;;;;;4817919;29;20043;-83
2023/07/07 09:10:40;;;;;;;14.35;11.93;;;30.60;99.90;;;;;;4805158;29;20082;-83
2023/07/07 09:13:20;;;;;;;18.02;12.95;;;30.50;99.90;;;;;;4804806;29;20043;-82
2023/07/07 09:15:59;;;;;;;16.85;12.30;;;30.10;99.90;;;;;;4802956;29;20043;-83
2023/07/07 09:18:30;;;;;;;17.17;13.63;;;29.80;99.90;;;;;;4803005;29;20050;-82
2023/07/07 09:21:03;;;;;;;14.10;11.45;;;29.80;99.90;;;;;;4801979;29;20039;-84
2023/07/07 09:23:33;;;;;;;16.83;11.43;;;29.70;99.90;;;;;;4802388;29;20066;-81
2023/07/07 09:26:05;;;;;;;17.17;12.35;;;29.70;99.90;;;;;;4802554;29;20066;-82
2023/07/07 09:28:37;;;;;;;19.13;12.35;;;29.70;99.90;;;;;;4794773;29;20455;-82
2023/07/07 09:31:25;;;;;;;16.23;11.10;;;29.40;99.90;;;;;;4838256;29;20099;-81
2023/07/07 09:33:55;;;;;;;15.27;11.32;;;28.70;99.90;;;;;;4838830;29;20081;-83
2023/07/07 09:36:29;;;;;;;21.75;15.15;;;28.90;99.90;;;;;;4821502;29;20050;-82
2023/07/07 09:39:11;;;;;;;34.55;21.63;;;29.00;99.90;;;;;;4838848;29;20551;-83
2023/07/07 09:41:48;;;;;;;24.30;13.02;;;29.00;99.90;;;;;;4838468;29;20046;-82
2023/07/07 09:44:30;;;;;;;15.55;11.10;;;29.20;99.90;;;;;;4828236;29;20054;-81
2023/07/07 09:47:06;;;;;;;18.17;11.80;;;29.10;99.90;;;;;;4802938;29;20539;-82
2023/07/07 09:49:41;;;;;;;17.98;11.10;;;28.90;99.90;;;;;;4821130;29;20145;-82
2023/07/07 09:52:34;;;;;;;21.50;12.90;;;28.90;99.90;;;;;;4821776;29;20046;-81
2023/07/07 09:55:09;;;;;;;14.18;10.27;;;28.90;99.90;;;;;;4823764;29;20073;-82
2023/07/07 09:57:41;;;;;;;14.95;11.45;;;28.80;99.90;;;;;;4822152;29;20094;-83
2023/07/07 10:00:16;;;;;;;23.98;12.85;;;28.70;99.90;;;;;;4821309;29;20074;-82
2023/07/07 10:02:45;;;;;;;22.02;15.43;;;28.80;99.90;;;;;;4839854;29;20114;-82
2023/07/07 10:05:20;;;;;;;18.83;12.93;;;28.80;99.90;;;;;;4861134;29;20061;-81
2023/07/07 10:07:49;;;;;;;15.38;11.00;;;28.80;99.90;;;;;;4835830;29;20050;-81
2023/07/07 10:10:16;;;;;;;16.40;9.60;;;28.90;99.90;;;;;;4825416;29;20062;-82
2023/07/07 10:12:45;;;;;;;16.67;12.23;;;29.20;99.90;;;;;;4828103;29;20070;-83
2023/07/07 10:15:50;;;;;;;20.85;14.07;;;29.30;99.90;;;;;;4807434;29;20053;-82
2023/07/07 10:18:22;;;;;;;16.45;11.20;;;29.50;99.90;;;;;;4824485;29;20093;-82
2023/07/07 10:20:49;;;;;;;19.00;11.98;;;29.50;99.90;;;;;;4824752;29;20043;-81
2023/07/07 10:23:18;;;;;;;15.40;12.32;;;29.60;99.90;;;;;;4807272;29;20066;-82
2023/07/07 10:25:47;;;;;;;16.90;13.38;;;29.60;99.90;;;;;;4823649;29;20077;-83
2023/07/07 10:28:16;;;;;;;18.27;14.68;;;30.00;99.90;;;;;;4811944;29;20046;-83
2023/07/07 10:30:45;;;;;;;17.58;12.18;;;30.30;99.90;;;;;;4840598;29;20042;-82
2023/07/07 10:33:16;;;;;;;14.43;10.98;;;30.50;99.90;;;;;;4841081;29;20226;-82
2023/07/07 10:35:44;;;;;;;17.88;11.98;;;30.70;99.90;;;;;;4841737;29;20086;-83
2023/07/07 10:38:12;;;;;;;19.33;13.73;;;30.60;99.90;;;;;;4824757;29;20064;-81
2023/07/07 10:40:45;;;;;;;17.17;11.98;;;30.70;99.90;;;;;;4841553;29;20045;-82
2023/07/07 10:43:14;;;;;;;17.20;9.70;;;30.90;99.90;;;;;;4838369;29;20035;-82
2023/07/07 10:45:47;;;;;;;13.52;9.23;;;31.00;99.90;;;;;;4823541;29;20365;-83
2023/07/07 10:48:16;;;;;;;13.00;8.65;;;30.50;99.90;;;;;;4824685;29;20062;-83
2023/07/07 10:50:53;;;;;;;11.32;8.45;;;30.20;99.90;;;;;;4824845;29;20130;-82
2023/07/07 10:53:32;;;;;;;12.75;8.48;;;30.20;99.90;;;;;;4822915;29;20054;-83
2023/07/07 10:56:24;;;;;;;10.90;8.38;;;30.20;99.90;;;;;;4822988;29;20365;-82
2023/07/07 10:59:33;;;;;;;12.48;7.80;;;30.20;99.90;;;;;;4824281;29;20057;-82
2023/07/07 11:02:13;;;;;;;9.55;7.50;;;29.90;99.90;;;;;;4815376;29;20500;-82
2023/07/07 11:05:12;;;;;;;14.73;9.10;;;29.50;99.90;;;;;;4824765;29;20099;-82
2023/07/07 11:07:49;;;;;;;12.90;8.95;;;29.60;99.90;;;;;;4808506;29;20082;-83
2023/07/07 11:10:41;;;;;;;10.98;8.32;;;29.40;99.90;;;;;;4822183;29;20155;-82
2023/07/07 11:13:17;;;;;;;14.85;10.00;;;29.00;99.90;;;;;;4827882;29;20055;-82
2023/07/07 11:15:55;;;;;;;17.65;11.68;;;29.10;99.90;;;;;;4824367;29;20046;-82
2023/07/07 11:18:41;;;;;;;16.80;10.88;;;29.10;99.90;;;;;;4826461;29;20099;-81
2023/07/07 11:21:18;;;;;;;13.00;8.32;;;28.90;99.90;;;;;;4805443;29;20479;-82
2023/07/07 11:24:13;;;;;;;18.63;15.05;;;28.70;99.90;;;;;;4807047;29;20046;-82
2023/07/07 11:27:08;;;;;;;14.73;10.52;;;28.60;99.90;;;;;;4821541;29;20091;-81
2023/07/07 11:29:45;;;;;;;12.65;9.30;;;28.60;99.90;;;;;;4827714;29;20042;-84
2023/07/07 11:32:20;;;;;;;14.73;9.13;;;28.60;99.90;;;;;;4835854;23;20049;-78
2023/07/07 11:35:05;;;;;;;14.32;8.48;;;28.40;99.90;;;;;;4840581;29;20533;-78
2023/07/07 11:37:46;;;;;;;11.95;8.30;;;28.30;99.90;;;;;;4841599;29;20075;-77
2023/07/07 11:40:29;;;;;;;12.45;7.93;;;28.40;99.90;;;;;;4841282;29;20053;-77
2023/07/07 11:43:13;;;;;;;10.55;7.35;;;28.50;99.90;;;;;;4825512;29;20547;-76
2023/07/07 11:46:07;;;;;;;11.88;8.70;;;28.60;99.90;;;;;;4846384;29;20136;-75
2023/07/07 11:48:46;;;;;;;17.33;11.68;;;28.50;99.90;;;;;;4841524;29;20058;-76
2023/07/07 11:51:29;;;;;;;12.43;8.43;;;28.40;99.90;;;;;;4823556;29;20042;-75
2023/07/07 11:54:22;;;;;;;13.63;9.57;;;28.00;99.90;;;;;;4841703;29;20084;-79
2023/07/07 11:57:06;;;;;;;12.13;8.65;;;27.70;99.90;;;;;;4841622;29;20062;-77
2023/07/07 11:59:55;;;;;;;12.30;9.15;;;27.70;99.90;;;;;;4840432;29;20125;-77
2023/07/07 12:02:29;;;;;;;11.23;8.50;;;27.70;99.90;;;;;;4830800;29;20059;-79
2023/07/07 12:05:00;;;;;;;14.23;7.72;;;27.70;99.90;;;;;;4840075;29;20125;-77
2023/07/07 12:07:34;;;;;;;10.90;7.03;;;27.60;99.90;;;;;;4840493;29;20133;-77
2023/07/07 12:10:08;;;;;;;9.05;7.55;;;27.70;99.90;;;;;;4839387;29;20050;-76
2023/07/07 12:12:39;;;;;;;13.88;7.30;;;27.90;99.90;;;;;;4842737;29;20046;-75
2023/07/07 12:15:15;;;;;;;19.13;7.50;;;28.20;99.90;;;;;;4847813;29;20072;-77
2023/07/07 12:17:50;;;;;;;10.25;8.43;;;28.60;99.90;;;;;;4851735;29;20249;-77
2023/07/07 12:20:22;;;;;;;8.10;6.00;;;28.90;99.90;;;;;;4840089;29;20053;-77
2023/07/07 12:22:50;;;;;;;11.05;8.18;;;28.80;99.90;;;;;;4849246;29;20042;-75
2023/07/07 12:25:23;;;;;;;8.52;6.38;;;29.00;99.90;;;;;;4843831;29;20072;-75
2023/07/07 12:27:52;;;;;;;10.07;7.15;;;29.10;99.90;;;;;;4840113;29;20137;-78
2023/07/07 12:30:23;;;;;;;11.05;6.93;;;29.10;99.90;;;;;;4856438;29;20128;-76
2023/07/07 12:32:52;;;;;;;8.43;6.00;;;29.00;99.90;;;;;;4858339;29;20115;-78
2023/07/07 12:35:30;;;;;;;7.80;6.30;;;29.10;99.90;;;;;;4857655;29;20494;-78
2023/07/07 12:37:59;;;;;;;9.68;7.07;;;29.00;99.90;;;;;;4857526;29;20053;-76
2023/07/07 12:40:27;;;;;;;14.38;7.00;;;29.00;99.90;;;;;;4858061;29;20076;-76
2023/07/07 12:43:06;;;;;;;9.20;6.65;;;28.80;99.90;;;;;;4840771;29;20120;-76
2023/07/07 12:45:33;;;;;;;9.50;7.65;;;28.60;99.90;;;;;;4839285;29;20046;-75
2023/07/07 12:48:04;;;;;;;10.90;8.02;;;28.90;99.90;;;;;;4840437;29;20563;-76
2023/07/07 12:50:37;;;;;;;10.50;7.93;;;28.70;99.90;;;;;;4843128;29;20054;-75
2023/07/07 12:53:10;;;;;;;9.35;7.28;;;28.50;99.90;;;;;;4846132;29;20090;-77